sensor_id;sensor_type;location;lat;lon;timestamp;pressure;altitude;pressure_sealevel;temperature;humidity
41712;BME280;27399;51.516;13.670;2023-02-17T00:01:16;100960.97;;;9.21;75.76
41712;BME280;27399;51.516;13.670;2023-02-17T00:03:43;100962.84;;;9.41;75.54
41712;BME280;27399;51.516;13.670;2023-02-17T00:06:12;100954.84;;;9.36;75.78
41712;BME280;27399;51.516;13.670;2023-02-17T00:08:38;100954.75;;;9.18;76.14
41712;BME280;27399;51.516;13.670;2023-02-17T00:11:04;100951.16;;;9.09;76.39
41712;BME280;27399;51.516;13.670;2023-02-17T00:13:30;100952.09;;;9.24;76.11
41712;BME280;27399;51.516;13.670;2023-02-17T00:15:55;100946.84;;;9.35;75.74
41712;BME280;27399;51.516;13.670;2023-02-17T00:18:21;100945.91;;;9.26;76.18
41712;BME280;27399;51.516;13.670;2023-02-17T00:20:47;100937.13;;;9.41;75.92
41712;BME280;27399;51.516;13.670;2023-02-17T00:23:14;100943.19;;;9.17;76.21
41712;BME280;27399;51.516;13.670;2023-02-17T00:25:39;100941.50;;;9.27;76.01
41712;BME280;27399;51.516;13.670;2023-02-17T00:28:05;100942.25;;;9.04;76.92
41712;BME280;27399;51.516;13.670;2023-02-17T00:30:30;100939.69;;;9.26;76.15
41712;BME280;27399;51.516;13.670;2023-02-17T00:32:56;100940.56;;;9.22;76.27
41712;BME280;27399;51.516;13.670;2023-02-17T00:35:22;100925.38;;;9.02;76.51
41712;BME280;27399;51.516;13.670;2023-02-17T00:37:47;100921.94;;;9.20;76.42
41712;BME280;27399;51.516;13.670;2023-02-17T00:40:13;100938.72;;;9.05;76.89
41712;BME280;27399;51.516;13.670;2023-02-17T00:42:39;100923.72;;;9.20;76.56
41712;BME280;27399;51.516;13.670;2023-02-17T00:45:05;100928.97;;;9.10;76.61
41712;BME280;27399;51.516;13.670;2023-02-17T00:47:31;100940.56;;;9.19;76.66
41712;BME280;27399;51.516;13.670;2023-02-17T00:49:57;100935.25;;;9.25;76.21
41712;BME280;27399;51.516;13.670;2023-02-17T00:52:23;100936.13;;;9.21;76.75
41712;BME280;27399;51.516;13.670;2023-02-17T00:54:48;100930.88;;;9.38;76.43
41712;BME280;27399;51.516;13.670;2023-02-17T00:57:14;100937.03;;;9.27;76.31
41712;BME280;27399;51.516;13.670;2023-02-17T00:59:40;100928.22;;;9.36;76.30
41712;BME280;27399;51.516;13.670;2023-02-17T01:02:05;100937.09;;;9.38;76.15
41712;BME280;27399;51.516;13.670;2023-02-17T01:04:31;100929.16;;;9.46;75.84
41712;BME280;27399;51.516;13.670;2023-02-17T01:06:56;100931.78;;;9.38;75.89
41712;BME280;27399;51.516;13.670;2023-02-17T01:09:22;100934.41;;;9.29;76.34
41712;BME280;27399;51.516;13.670;2023-02-17T01:11:48;100933.53;;;9.32;76.20
41712;BME280;27399;51.516;13.670;2023-02-17T01:14:14;100929.09;;;9.37;76.16
41712;BME280;27399;51.516;13.670;2023-02-17T01:16:43;100936.13;;;9.18;76.33
41712;BME280;27399;51.516;13.670;2023-02-17T01:19:12;100930.78;;;9.19;76.75
41712;BME280;27399;51.516;13.670;2023-02-17T01:21:38;100928.97;;;9.07;76.67
41712;BME280;27399;51.516;13.670;2023-02-17T01:24:05;100934.28;;;9.10;76.99
41712;BME280;27399;51.516;13.670;2023-02-17T01:26:33;100911.31;;;9.26;76.53
41712;BME280;27399;51.516;13.670;2023-02-17T01:29:00;100912.28;;;9.39;76.60
41712;BME280;27399;51.516;13.670;2023-02-17T01:31:26;100913.94;;;9.22;77.20
41712;BME280;27399;51.516;13.670;2023-02-17T01:33:54;100905.16;;;9.35;76.69
41712;BME280;27399;51.516;13.670;2023-02-17T01:36:20;100903.28;;;9.14;77.13
41712;BME280;27399;51.516;13.670;2023-02-17T01:38:46;100904.19;;;9.22;77.29
41712;BME280;27399;51.516;13.670;2023-02-17T01:41:13;100892.69;;;9.25;76.78
41712;BME280;27399;51.516;13.670;2023-02-17T01:43:40;100886.50;;;9.30;76.54
41712;BME280;27399;51.516;13.670;2023-02-17T01:46:07;100885.66;;;9.39;76.49
41712;BME280;27399;51.516;13.670;2023-02-17T01:48:47;100870.53;;;9.37;76.89
41712;BME280;27399;51.516;13.670;2023-02-17T01:51:21;100869.63;;;9.33;77.05
41712;BME280;27399;51.516;13.670;2023-02-17T01:53:55;100860.63;;;9.03;77.72
41712;BME280;27399;51.516;13.670;2023-02-17T01:56:23;100853.69;;;9.36;76.97
41712;BME280;27399;51.516;13.670;2023-02-17T01:59:02;100851.88;;;9.27;77.14
41712;BME280;27399;51.516;13.670;2023-02-17T02:01:30;100846.47;;;9.09;77.64
41712;BME280;27399;51.516;13.670;2023-02-17T02:03:57;100835.94;;;9.37;76.92
41712;BME280;27399;51.516;13.670;2023-02-17T02:06:26;100833.25;;;9.30;76.91
41712;BME280;27399;51.516;13.670;2023-02-17T02:09:02;100830.66;;;9.41;76.76
41712;BME280;27399;51.516;13.670;2023-02-17T02:11:28;100824.41;;;9.47;76.55
41712;BME280;27399;51.516;13.670;2023-02-17T02:13:54;100827.97;;;9.43;76.59
41712;BME280;27399;51.516;13.670;2023-02-17T02:16:28;100825.25;;;9.24;76.94
41712;BME280;27399;51.516;13.670;2023-02-17T02:27:58;100804.81;;;9.14;78.01
41712;BME280;27399;51.516;13.670;2023-02-17T02:30:44;100807.53;;;9.31;77.52
41712;BME280;27399;51.516;13.670;2023-02-17T02:38:56;100784.47;;;9.41;78.79
41712;BME280;27399;51.516;13.670;2023-02-17T02:41:28;100772.88;;;9.12;79.44
41712;BME280;27399;51.516;13.670;2023-02-17T02:43:55;100776.47;;;9.36;79.00
41712;BME280;27399;51.516;13.670;2023-02-17T02:46:21;100785.34;;;9.30;79.40
41712;BME280;27399;51.516;13.670;2023-02-17T02:48:47;100781.81;;;9.38;79.30
41712;BME280;27399;51.516;13.670;2023-02-17T02:59:46;100752.47;;;9.16;80.45
41712;BME280;27399;51.516;13.670;2023-02-17T03:02:39;100759.63;;;9.34;79.83
41712;BME280;27399;51.516;13.670;2023-02-17T03:05:12;100761.41;;;9.34;80.04
41712;BME280;27399;51.516;13.670;2023-02-17T03:07:52;100729.44;;;9.23;79.92
41712;BME280;27399;51.516;13.670;2023-02-17T03:10:20;100750.78;;;9.41;79.96
41712;BME280;27399;51.516;13.670;2023-02-17T03:12:45;100757.00;;;9.56;79.62
41712;BME280;27399;51.516;13.670;2023-02-17T03:15:17;100712.59;;;9.30;79.66
41712;BME280;27399;51.516;13.670;2023-02-17T03:17:44;100751.69;;;9.59;79.38
41712;BME280;27399;51.516;13.670;2023-02-17T03:20:12;100755.19;;;9.36;80.35
41712;BME280;27399;51.516;13.670;2023-02-17T03:22:40;100754.28;;;9.28;80.39
41712;BME280;27399;51.516;13.670;2023-02-17T03:25:08;100751.66;;;9.51;79.86
41712;BME280;27399;51.516;13.670;2023-02-17T03:27:34;100747.22;;;9.39;80.33
41712;BME280;27399;51.516;13.670;2023-02-17T03:29:59;100745.44;;;9.48;80.24
41712;BME280;27399;51.516;13.670;2023-02-17T03:32:25;100741.88;;;9.45;80.06
41712;BME280;27399;51.516;13.670;2023-02-17T03:34:51;100735.66;;;9.43;80.48
41712;BME280;27399;51.516;13.670;2023-02-17T03:37:16;100741.00;;;9.42;80.48
41712;BME280;27399;51.516;13.670;2023-02-17T03:39:42;100731.25;;;9.39;81.11
41712;BME280;27399;51.516;13.670;2023-02-17T03:42:07;100734.81;;;9.48;80.42
41712;BME280;27399;51.516;13.670;2023-02-17T03:44:33;100729.47;;;9.44;80.47
41712;BME280;27399;51.516;13.670;2023-02-17T03:46:59;100733.94;;;9.52;80.08
41712;BME280;27399;51.516;13.670;2023-02-17T03:49:24;100735.69;;;9.37;80.29
41712;BME280;27399;51.516;13.670;2023-02-17T03:51:50;100733.91;;;9.63;79.48
41712;BME280;27399;51.516;13.670;2023-02-17T03:54:15;100733.03;;;9.68;79.32
41712;BME280;27399;51.516;13.670;2023-02-17T03:56:41;100734.81;;;9.57;79.72
41712;BME280;27399;51.516;13.670;2023-02-17T03:59:07;100725.03;;;9.50;80.52
41712;BME280;27399;51.516;13.670;2023-02-17T04:01:32;100731.25;;;9.49;80.79
41712;BME280;27399;51.516;13.670;2023-02-17T04:03:58;100730.38;;;9.40;81.67
41712;BME280;27399;51.516;13.670;2023-02-17T04:06:24;100731.22;;;9.33;82.75
41712;BME280;27399;51.516;13.670;2023-02-17T04:08:51;100741.88;;;9.33;83.80
41712;BME280;27399;51.516;13.670;2023-02-17T04:11:16;100741.84;;;9.21;85.04
41712;BME280;27399;51.516;13.670;2023-02-17T04:13:42;100741.84;;;9.13;85.72
41712;BME280;27399;51.516;13.670;2023-02-17T04:16:09;100743.63;;;9.25;86.58
41712;BME280;27399;51.516;13.670;2023-02-17T04:18:35;100726.78;;;9.26;86.85
41712;BME280;27399;51.516;13.670;2023-02-17T04:21:01;100739.19;;;9.24;88.49
41712;BME280;27399;51.516;13.670;2023-02-17T04:23:27;100732.03;;;8.93;89.53
41712;BME280;27399;51.516;13.670;2023-02-17T04:25:52;100733.84;;;9.10;89.59
41712;BME280;27399;51.516;13.670;2023-02-17T04:28:18;100724.91;;;8.89;90.89
41712;BME280;27399;51.516;13.670;2023-02-17T04:30:47;100727.53;;;8.81;92.04
41712;BME280;27399;51.516;13.670;2023-02-17T04:33:13;100721.41;;;9.10;91.28
41712;BME280;27399;51.516;13.670;2023-02-17T04:35:39;100717.00;;;9.12;90.83
41712;BME280;27399;51.516;13.670;2023-02-17T04:38:05;100715.22;;;9.08;91.69
41712;BME280;27399;51.516;13.670;2023-02-17T04:40:31;100716.09;;;9.13;91.96
41712;BME280;27399;51.516;13.670;2023-02-17T04:42:57;100716.09;;;8.98;92.44
41712;BME280;27399;51.516;13.670;2023-02-17T04:45:22;100704.56;;;9.02;93.28
41712;BME280;27399;51.516;13.670;2023-02-17T04:47:48;100698.31;;;8.94;93.28
41712;BME280;27399;51.516;13.670;2023-02-17T04:50:14;100705.47;;;9.07;92.64
41712;BME280;27399;51.516;13.670;2023-02-17T04:52:40;100706.25;;;8.78;95.01
41712;BME280;27399;51.516;13.670;2023-02-17T04:55:06;100717.78;;;8.74;94.65
41712;BME280;27399;51.516;13.670;2023-02-17T04:57:32;100700.06;;;8.82;95.38
41712;BME280;27399;51.516;13.670;2023-02-17T04:59:58;100701.00;;;8.97;94.36
41712;BME280;27399;51.516;13.670;2023-02-17T05:02:24;100699.16;;;8.73;95.85
41712;BME280;27399;51.516;13.670;2023-02-17T05:04:52;100691.22;;;8.83;95.39
41712;BME280;27399;51.516;13.670;2023-02-17T05:07:18;100693.81;;;8.71;96.40
41712;BME280;27399;51.516;13.670;2023-02-17T05:09:43;100688.50;;;8.71;96.96
41712;BME280;27399;51.516;13.670;2023-02-17T05:12:09;100689.38;;;8.70;96.29
41712;BME280;27399;51.516;13.670;2023-02-17T05:14:35;100684.13;;;8.86;95.85
41712;BME280;27399;51.516;13.670;2023-02-17T05:17:00;100683.22;;;8.80;96.50
41712;BME280;27399;51.516;13.670;2023-02-17T05:19:26;100677.91;;;8.79;96.37
41712;BME280;27399;51.516;13.670;2023-02-17T05:21:52;100680.47;;;8.54;97.72
41712;BME280;27399;51.516;13.670;2023-02-17T05:24:17;100684.94;;;8.69;97.19
41712;BME280;27399;51.516;13.670;2023-02-17T05:26:46;100676.03;;;8.58;97.63
41712;BME280;27399;51.516;13.670;2023-02-17T05:29:12;100663.75;;;8.89;96.60
41712;BME280;27399;51.516;13.670;2023-02-17T05:31:37;100667.28;;;8.83;96.09
41712;BME280;27399;51.516;13.670;2023-02-17T05:34:03;100665.47;;;8.75;96.24
41712;BME280;27399;51.516;13.670;2023-02-17T05:36:29;100660.09;;;8.61;96.33
41712;BME280;27399;51.516;13.670;2023-02-17T05:38:54;100661.94;;;8.85;96.56
41712;BME280;27399;51.516;13.670;2023-02-17T05:41:20;100649.56;;;8.95;94.83
41712;BME280;27399;51.516;13.670;2023-02-17T05:43:46;100657.53;;;8.81;95.36
41712;BME280;27399;51.516;13.670;2023-02-17T05:46:12;100659.31;;;8.82;95.77
41712;BME280;27399;51.516;13.670;2023-02-17T05:48:38;100653.97;;;8.94;95.02
41712;BME280;27399;51.516;13.670;2023-02-17T05:51:04;100631.81;;;8.75;94.78
41712;BME280;27399;51.516;13.670;2023-02-17T05:53:30;100651.34;;;9.02;94.45
41712;BME280;27399;51.516;13.670;2023-02-17T05:55:56;100632.72;;;8.97;94.09
41712;BME280;27399;51.516;13.670;2023-02-17T05:58:22;100636.28;;;9.17;93.07
41712;BME280;27399;51.516;13.670;2023-02-17T06:00:47;100631.84;;;9.12;93.49
41712;BME280;27399;51.516;13.670;2023-02-17T06:03:13;100635.34;;;8.90;93.86
41712;BME280;27399;51.516;13.670;2023-02-17T06:05:39;100640.69;;;8.83;93.61
41712;BME280;27399;51.516;13.670;2023-02-17T06:08:05;100646.00;;;8.83;93.70
41712;BME280;27399;51.516;13.670;2023-02-17T06:10:31;100640.72;;;9.16;92.59
41712;BME280;27399;51.516;13.670;2023-02-17T06:12:56;100638.97;;;9.20;92.11
41712;BME280;27399;51.516;13.670;2023-02-17T06:15:22;100642.50;;;9.06;92.34
41712;BME280;27399;51.516;13.670;2023-02-17T06:17:48;100639.81;;;9.12;91.74
41712;BME280;27399;51.516;13.670;2023-02-17T06:20:14;100645.16;;;9.08;91.76
41712;BME280;27399;51.516;13.670;2023-02-17T06:22:40;100638.06;;;9.22;91.35
41712;BME280;27399;51.516;13.670;2023-02-17T06:25:06;100633.66;;;9.24;91.05
41712;BME280;27399;51.516;13.670;2023-02-17T06:27:32;100632.72;;;9.01;91.62
41712;BME280;27399;51.516;13.670;2023-02-17T06:29:57;100625.66;;;9.21;90.68
41712;BME280;27399;51.516;13.670;2023-02-17T06:32:23;100620.34;;;9.24;90.71
41712;BME280;27399;51.516;13.670;2023-02-17T06:34:49;100613.22;;;9.15;89.89
41712;BME280;27399;51.516;13.670;2023-02-17T06:37:14;100607.03;;;9.17;90.72
41712;BME280;27399;51.516;13.670;2023-02-17T06:39:40;100624.78;;;9.39;89.71
41712;BME280;27399;51.516;13.670;2023-02-17T06:42:05;100620.31;;;9.44;89.61
41712;BME280;27399;51.516;13.670;2023-02-17T06:44:31;100612.31;;;9.32;89.78
41712;BME280;27399;51.516;13.670;2023-02-17T06:46:57;100626.53;;;9.28;89.86
41712;BME280;27399;51.516;13.670;2023-02-17T06:49:24;100622.97;;;9.52;88.98
41712;BME280;27399;51.516;13.670;2023-02-17T06:51:49;100620.28;;;9.63;88.29
41712;BME280;27399;51.516;13.670;2023-02-17T06:54:15;100625.63;;;9.58;88.53
41712;BME280;27399;51.516;13.670;2023-02-17T06:56:41;100622.09;;;9.49;88.83
41712;BME280;27399;51.516;13.670;2023-02-17T06:59:06;100620.31;;;9.54;88.16
41712;BME280;27399;51.516;13.670;2023-02-17T07:01:32;100614.06;;;9.72;88.04
41712;BME280;27399;51.516;13.670;2023-02-17T07:03:58;100624.75;;;9.52;88.63
41712;BME280;27399;51.516;13.670;2023-02-17T07:06:24;100632.72;;;9.63;87.92
41712;BME280;27399;51.516;13.670;2023-02-17T07:08:50;100628.28;;;9.54;87.80
41712;BME280;27399;51.516;13.670;2023-02-17T07:11:16;100626.53;;;9.50;88.88
41712;BME280;27399;51.516;13.670;2023-02-17T07:13:43;100620.31;;;9.52;88.53
41712;BME280;27399;51.516;13.670;2023-02-17T07:16:10;100627.41;;;9.61;88.56
41712;BME280;27399;51.516;13.670;2023-02-17T07:18:37;100611.41;;;9.78;87.41
41712;BME280;27399;51.516;13.670;2023-02-17T07:21:07;100623.84;;;9.76;87.67
41712;BME280;27399;51.516;13.670;2023-02-17T07:23:33;100619.38;;;9.72;87.57
41712;BME280;27399;51.516;13.670;2023-02-17T07:26:04;100614.94;;;9.82;87.27
41712;BME280;27399;51.516;13.670;2023-02-17T07:28:29;100614.06;;;9.76;87.57
41712;BME280;27399;51.516;13.670;2023-02-17T07:30:55;100617.59;;;9.80;87.26
41712;BME280;27399;51.516;13.670;2023-02-17T07:33:21;100608.75;;;9.70;87.47
41712;BME280;27399;51.516;13.670;2023-02-17T07:35:46;100609.59;;;9.88;86.82
41712;BME280;27399;51.516;13.670;2023-02-17T07:38:12;100618.47;;;9.79;87.34
41712;BME280;27399;51.516;13.670;2023-02-17T07:40:38;100615.81;;;9.87;87.40
41712;BME280;27399;51.516;13.670;2023-02-17T07:43:04;100607.84;;;9.73;87.47
41712;BME280;27399;51.516;13.670;2023-02-17T07:45:30;100620.25;;;9.88;86.99
41712;BME280;27399;51.516;13.670;2023-02-17T07:47:55;100627.28;;;10.07;86.16
41712;BME280;27399;51.516;13.670;2023-02-17T07:50:21;100629.09;;;10.10;86.37
41712;BME280;27399;51.516;13.670;2023-02-17T07:52:47;100616.63;;;10.14;86.06
41712;BME280;27399;51.516;13.670;2023-02-17T07:55:12;100621.94;;;10.18;85.49
41712;BME280;27399;51.516;13.670;2023-02-17T07:57:38;100626.44;;;10.02;86.66
41712;BME280;27399;51.516;13.670;2023-02-17T08:00:04;100629.97;;;10.07;86.14
41712;BME280;27399;51.516;13.670;2023-02-17T08:02:30;100622.06;;;9.83;87.27
41712;BME280;27399;51.516;13.670;2023-02-17T08:04:56;100622.88;;;10.05;86.26
41712;BME280;27399;51.516;13.670;2023-02-17T08:07:21;100630.88;;;9.89;86.70
41712;BME280;27399;51.516;13.670;2023-02-17T08:09:47;100624.63;;;10.12;86.28
41712;BME280;27399;51.516;13.670;2023-02-17T08:12:31;100607.75;;;10.05;86.37
41712;BME280;27399;51.516;13.670;2023-02-17T08:15:34;100630.88;;;10.03;86.88
41712;BME280;27399;51.516;13.670;2023-02-17T08:18:00;100621.13;;;9.90;86.86
41712;BME280;27399;51.516;13.670;2023-02-17T08:20:27;100616.66;;;9.95;87.27
41712;BME280;27399;51.516;13.670;2023-02-17T08:22:52;100621.09;;;9.99;87.58
41712;BME280;27399;51.516;13.670;2023-02-17T08:25:18;100614.00;;;9.95;87.48
41712;BME280;27399;51.516;13.670;2023-02-17T08:27:44;100611.25;;;10.23;86.83
41712;BME280;27399;51.516;13.670;2023-02-17T08:30:10;100616.66;;;10.09;87.63
41712;BME280;27399;51.516;13.670;2023-02-17T08:32:37;100605.03;;;10.21;86.99
41712;BME280;27399;51.516;13.670;2023-02-17T08:35:03;100601.44;;;10.34;86.38
41712;BME280;27399;51.516;13.670;2023-02-17T08:37:31;100600.63;;;10.11;87.51
41712;BME280;27399;51.516;13.670;2023-02-17T08:39:56;100595.25;;;10.21;87.32
41712;BME280;27399;51.516;13.670;2023-02-17T08:42:25;100593.50;;;10.22;87.59
41712;BME280;27399;51.516;13.670;2023-02-17T08:44:50;100582.81;;;10.23;87.68
41712;BME280;27399;51.516;13.670;2023-02-17T08:47:16;100593.50;;;10.20;87.83
41712;BME280;27399;51.516;13.670;2023-02-17T08:49:42;100580.09;;;10.37;87.06
41712;BME280;27399;51.516;13.670;2023-02-17T08:52:08;100553.50;;;10.23;87.04
41712;BME280;27399;51.516;13.670;2023-02-17T08:54:34;100578.34;;;10.36;87.40
41712;BME280;27399;51.516;13.670;2023-02-17T08:56:59;100582.75;;;10.44;87.56
41712;BME280;27399;51.516;13.670;2023-02-17T08:59:25;100574.69;;;10.54;86.60
41712;BME280;27399;51.516;13.670;2023-02-17T09:01:50;100570.19;;;10.67;85.99
41712;BME280;27399;51.516;13.670;2023-02-17T09:04:17;100524.13;;;10.42;86.52
41712;BME280;27399;51.516;13.670;2023-02-17T09:06:51;100571.97;;;10.68;87.05
41712;BME280;27399;51.516;13.670;2023-02-17T09:09:20;100582.69;;;10.58;87.17
41712;BME280;27399;51.516;13.670;2023-02-17T09:11:52;100569.22;;;10.78;86.62
41712;BME280;27399;51.516;13.670;2023-02-17T09:14:20;100576.28;;;10.85;86.28
41712;BME280;27399;51.516;13.670;2023-02-17T09:16:49;100561.09;;;10.95;85.95
41712;BME280;27399;51.516;13.670;2023-02-17T09:19:15;100576.13;;;11.05;85.66
41712;BME280;27399;51.516;13.670;2023-02-17T09:21:41;100579.69;;;11.03;85.63
41712;BME280;27399;51.516;13.670;2023-02-17T09:24:06;100574.31;;;11.10;85.28
41712;BME280;27399;51.516;13.670;2023-02-17T09:26:32;100577.81;;;11.14;85.07
41712;BME280;27399;51.516;13.670;2023-02-17T09:29:00;100568.13;;;11.05;84.83
41712;BME280;27399;51.516;13.670;2023-02-17T09:31:26;100568.06;;;11.14;85.14
41712;BME280;27399;51.516;13.670;2023-02-17T09:33:54;100550.25;;;11.15;84.48
41712;BME280;27399;51.516;13.670;2023-02-17T09:36:28;100571.50;;;11.26;84.46
41712;BME280;27399;51.516;13.670;2023-02-17T09:38:55;100557.31;;;11.18;84.39
41712;BME280;27399;51.516;13.670;2023-02-17T09:41:40;100537.91;;;11.03;84.42
41712;BME280;27399;51.516;13.670;2023-02-17T09:44:25;100550.25;;;11.12;84.44
41712;BME280;27399;51.516;13.670;2023-02-17T09:47:24;100559.09;;;11.19;84.17
41712;BME280;27399;51.516;13.670;2023-02-17T09:50:01;100552.00;;;11.16;84.54
41712;BME280;27399;51.516;13.670;2023-02-17T09:52:53;100556.44;;;11.17;84.49
41712;BME280;27399;51.516;13.670;2023-02-17T09:55:25;100544.03;;;11.13;84.82
41712;BME280;27399;51.516;13.670;2023-02-17T09:58:12;100538.78;;;11.00;84.69
41712;BME280;27399;51.516;13.670;2023-02-17T10:00:41;100540.50;;;11.09;84.95
41712;BME280;27399;51.516;13.670;2023-02-17T10:03:24;100539.44;;;11.27;84.64
41712;BME280;27399;51.516;13.670;2023-02-17T10:08:55;100530.63;;;11.18;84.90
41712;BME280;27399;51.516;13.670;2023-02-17T10:11:35;100520.91;;;11.12;85.10
41712;BME280;27399;51.516;13.670;2023-02-17T10:14:16;100517.25;;;11.21;84.54
41712;BME280;27399;51.516;13.670;2023-02-17T10:16:48;100504.09;;;11.05;85.24
41712;BME280;27399;51.516;13.670;2023-02-17T10:19:29;100502.94;;;11.29;84.64
41712;BME280;27399;51.516;13.670;2023-02-17T10:22:09;100485.13;;;11.30;85.26
41712;BME280;27399;51.516;13.670;2023-02-17T10:24:35;100486.97;;;11.23;85.74
41712;BME280;27399;51.516;13.670;2023-02-17T10:30:18;100485.13;;;11.31;85.83
41712;BME280;27399;51.516;13.670;2023-02-17T10:40:55;100462.88;;;11.31;85.57
41712;BME280;27399;51.516;13.670;2023-02-17T10:43:25;100457.69;;;11.17;85.83
41712;BME280;27399;51.516;13.670;2023-02-17T10:45:54;100453.31;;;11.10;85.84
41712;BME280;27399;51.516;13.670;2023-02-17T10:48:39;100455.03;;;11.17;85.50
41712;BME280;27399;51.516;13.670;2023-02-17T10:51:06;100446.94;;;11.25;86.09
41712;BME280;27399;51.516;13.670;2023-02-17T10:53:37;100449.56;;;11.29;85.60
41712;BME280;27399;51.516;13.670;2023-02-17T10:58:50;100429.19;;;11.19;87.59
41712;BME280;27399;51.516;13.670;2023-02-17T11:01:19;100421.13;;;11.22;87.38
41712;BME280;27399;51.516;13.670;2023-02-17T11:03:59;100420.13;;;11.34;86.91
41712;BME280;27399;51.516;13.670;2023-02-17T11:06:25;100410.56;;;11.13;88.27
41712;BME280;27399;51.516;13.670;2023-02-17T11:08:57;100401.41;;;11.36;87.37
41712;BME280;27399;51.516;13.670;2023-02-17T11:11:26;100395.16;;;11.37;87.24
41712;BME280;27399;51.516;13.670;2023-02-17T11:16:55;100393.66;;;11.14;88.32
41712;BME280;27399;51.516;13.670;2023-02-17T11:19:30;100403.38;;;11.21;87.91
41712;BME280;27399;51.516;13.670;2023-02-17T11:21:59;100382.81;;;11.29;87.47
41712;BME280;27399;51.516;13.670;2023-02-17T11:24:27;100383.72;;;11.28;87.27
41712;BME280;27399;51.516;13.670;2023-02-17T11:26:59;100375.63;;;11.36;87.01
41712;BME280;27399;51.516;13.670;2023-02-17T11:29:25;100368.44;;;11.38;86.61
41712;BME280;27399;51.516;13.670;2023-02-17T11:32:05;100356.13;;;11.29;87.03
41712;BME280;27399;51.516;13.670;2023-02-17T11:34:39;100346.84;;;11.55;86.06
41712;BME280;27399;51.516;13.670;2023-02-17T11:39:45;100336.41;;;11.40;86.42
41712;BME280;27399;51.516;13.670;2023-02-17T11:44:41;100330.69;;;11.66;85.36
41712;BME280;27399;51.516;13.670;2023-02-17T12:00:14;100311.28;;;11.53;85.13
41712;BME280;27399;51.516;13.670;2023-02-17T12:11:14;100297.47;;;11.84;84.43
41712;BME280;27399;51.516;13.670;2023-02-17T12:25:02;100289.00;;;12.15;83.71
41712;BME280;27399;51.516;13.670;2023-02-17T12:27:48;100279.19;;;12.14;84.06
41712;BME280;27399;51.516;13.670;2023-02-17T12:36:17;100260.41;;;12.17;84.13
41712;BME280;27399;51.516;13.670;2023-02-17T12:38:49;100248.50;;;12.37;83.47
41712;BME280;27399;51.516;13.670;2023-02-17T12:41:21;100237.00;;;12.32;82.87
41712;BME280;27399;51.516;13.670;2023-02-17T12:43:52;100218.28;;;12.32;83.78
41712;BME280;27399;51.516;13.670;2023-02-17T12:46:24;100208.31;;;12.40;83.27
41712;BME280;27399;51.516;13.670;2023-02-17T12:51:58;100208.22;;;12.45;83.48
41712;BME280;27399;51.516;13.670;2023-02-17T12:54:35;100205.44;;;12.49;83.13
41712;BME280;27399;51.516;13.670;2023-02-17T12:57:13;100215.22;;;12.52;82.89
41712;BME280;27399;51.516;13.670;2023-02-17T12:59:46;100200.09;;;12.49;83.02
41712;BME280;27399;51.516;13.670;2023-02-17T13:02:19;100196.41;;;12.57;82.94
41712;BME280;27399;51.516;13.670;2023-02-17T13:04:53;100196.41;;;12.57;83.44
41712;BME280;27399;51.516;13.670;2023-02-17T13:07:42;100195.50;;;12.56;82.97
41712;BME280;27399;51.516;13.670;2023-02-17T13:15:34;100163.91;;;12.75;82.33
41712;BME280;27399;51.516;13.670;2023-02-17T13:18:26;100168.53;;;12.67;83.17
41712;BME280;27399;51.516;13.670;2023-02-17T13:20:56;100164.56;;;12.86;82.31
41712;BME280;27399;51.516;13.670;2023-02-17T13:23:34;100168.09;;;12.89;82.14
41712;BME280;27399;51.516;13.670;2023-02-17T13:28:46;100155.25;;;13.05;82.13
41712;BME280;27399;51.516;13.670;2023-02-17T13:31:23;100154.44;;;13.01;82.29
41712;BME280;27399;51.516;13.670;2023-02-17T13:33:54;100137.63;;;12.94;82.67
41712;BME280;27399;51.516;13.670;2023-02-17T13:41:27;100137.94;;;13.18;82.21
41712;BME280;27399;51.516;13.670;2023-02-17T13:43:56;100132.47;;;13.24;82.25
41712;BME280;27399;51.516;13.670;2023-02-17T13:46:24;100134.56;;;13.11;82.23
41712;BME280;27399;51.516;13.670;2023-02-17T13:48:59;100134.84;;;12.99;83.19
41712;BME280;27399;51.516;13.670;2023-02-17T13:51:28;100127.72;;;12.98;82.60
41712;BME280;27399;51.516;13.670;2023-02-17T13:53:54;100106.31;;;12.98;84.26
41712;BME280;27399;51.516;13.670;2023-02-17T13:56:27;100111.66;;;12.98;84.21
41712;BME280;27399;51.516;13.670;2023-02-17T13:58:54;100117.13;;;12.92;84.60
41712;BME280;27399;51.516;13.670;2023-02-17T14:01:30;100109.63;;;13.09;84.59
41712;BME280;27399;51.516;13.670;2023-02-17T14:03:56;100118.66;;;13.04;84.75
41712;BME280;27399;51.516;13.670;2023-02-17T14:06:31;100116.44;;;13.23;84.48
41712;BME280;27399;51.516;13.670;2023-02-17T14:08:57;100103.81;;;13.28;83.40
41712;BME280;27399;51.516;13.670;2023-02-17T14:11:27;100122.63;;;13.25;83.47
41712;BME280;27399;51.516;13.670;2023-02-17T14:13:55;100099.53;;;13.21;83.06
41712;BME280;27399;51.516;13.670;2023-02-17T14:16:35;100114.47;;;13.29;82.86
41712;BME280;27399;51.516;13.670;2023-02-17T14:19:03;100112.91;;;13.21;82.95
41712;BME280;27399;51.516;13.670;2023-02-17T14:21:29;100118.78;;;13.35;82.30
41712;BME280;27399;51.516;13.670;2023-02-17T14:23:57;100105.34;;;13.38;82.53
41712;BME280;27399;51.516;13.670;2023-02-17T14:26:36;100106.22;;;13.40;82.94
41712;BME280;27399;51.516;13.670;2023-02-17T14:29:05;100104.78;;;13.24;83.13
41712;BME280;27399;51.516;13.670;2023-02-17T14:31:45;100094.75;;;13.33;82.83
41712;BME280;27399;51.516;13.670;2023-02-17T14:34:23;100092.00;;;13.35;82.28
41712;BME280;27399;51.516;13.670;2023-02-17T14:36:49;100070.47;;;13.41;81.90